Time;durP1;ratioP1;P1;durP2;ratioP2;P2;SDS_P1;SDS_P2;PMS_P1;PMS_P2;Temp;Humidity;BMP_temperature;BMP_pressure;BME280_temperature;BME280_humidity;BME280_pressure;Samples;Min_cycle;Max_cycle;Signal;HPM_P1;HPM_P2
2022/01/30 00:02:18;;;;;;;13.83;4.67;;;7.80;99.90;;;;;;5052768;28;20212;-68
2022/01/30 00:04:43;;;;;;;16.97;5.90;;;7.80;99.90;;;;;;5054127;28;20768;-68
2022/01/30 00:07:09;;;;;;;13.10;5.50;;;7.80;99.90;;;;;;5055800;28;20170;-68
2022/01/30 00:09:34;;;;;;;16.20;5.33;;;7.80;99.90;;;;;;5037367;28;20221;-68
2022/01/30 00:12:03;;;;;;;17.27;5.20;;;7.70;99.90;;;;;;5054775;28;20178;-68
2022/01/30 00:14:33;;;;;;;15.57;5.30;;;7.60;99.90;;;;;;5054693;28;20189;-69
2022/01/30 00:17:12;;;;;;;13.43;4.73;;;7.50;99.90;;;;;;5053053;28;20512;-69
2022/01/30 00:19:45;;;;;;;12.50;5.47;;;7.50;99.90;;;;;;5053304;28;20428;-69
2022/01/30 00:22:20;;;;;;;10.63;4.37;;;7.50;99.90;;;;;;5035846;28;20906;-68
2022/01/30 00:27:19;;;;;;;13.40;4.73;;;7.40;99.90;;;;;;5053135;28;20393;-68
2022/01/30 00:29:45;;;;;;;13.57;6.30;;;7.40;99.90;;;;;;5052683;28;20982;-68
2022/01/30 00:32:10;;;;;;;14.53;5.70;;;7.40;99.90;;;;;;5044244;28;20407;-68
2022/01/30 00:34:36;;;;;;;14.23;5.33;;;7.40;99.90;;;;;;5074524;28;20182;-68
2022/01/30 00:37:03;;;;;;;20.80;5.57;;;7.30;99.90;;;;;;5073590;28;20173;-70
2022/01/30 00:39:28;;;;;;;13.70;5.10;;;7.30;99.90;;;;;;5060282;28;20573;-71
2022/01/30 00:41:54;;;;;;;13.83;4.40;;;7.30;99.90;;;;;;5054546;28;20408;-69
2022/01/30 00:44:20;;;;;;;11.57;4.20;;;7.30;99.90;;;;;;5055086;28;20205;-69
2022/01/30 00:46:46;;;;;;;14.40;5.27;;;7.20;99.90;;;;;;5053583;28;20170;-69
2022/01/30 00:49:12;;;;;;;18.77;6.30;;;7.20;99.90;;;;;;5052832;28;20687;-69
2022/01/30 00:51:37;;;;;;;15.00;4.30;;;7.20;99.90;;;;;;5052718;28;20480;-70
2022/01/30 00:54:03;;;;;;;18.17;5.10;;;7.20;99.90;;;;;;5058504;28;20443;-69
2022/01/30 00:56:29;;;;;;;17.53;5.47;;;7.20;99.90;;;;;;5073948;28;20217;-69
2022/01/30 00:58:54;;;;;;;16.40;4.80;;;7.20;99.90;;;;;;5072916;28;20972;-69
2022/01/30 01:01:20;;;;;;;16.80;6.30;;;7.20;99.90;;;;;;5072715;28;20546;-69
2022/01/30 01:03:46;;;;;;;14.70;4.33;;;7.10;99.90;;;;;;5072997;28;20201;-68
2022/01/30 01:06:11;;;;;;;14.40;4.23;;;7.10;99.90;;;;;;5072069;28;20186;-69
2022/01/30 01:08:52;;;;;;;14.03;5.63;;;7.20;99.90;;;;;;5072853;28;20197;-70
2022/01/30 01:24:25;;;;;;;15.03;5.20;;;7.20;99.90;;;;;;5076660;28;20443;-69
2022/01/30 01:26:50;;;;;;;15.40;5.23;;;7.20;99.90;;;;;;5058826;28;20408;-69
2022/01/30 01:29:16;;;;;;;14.37;4.03;;;7.20;99.90;;;;;;5068025;28;20229;-69
2022/01/30 01:31:41;;;;;;;12.47;4.63;;;7.20;99.90;;;;;;5038308;28;20219;-69
2022/01/30 01:34:30;;;;;;;16.80;6.20;;;7.10;99.90;;;;;;5056157;28;20175;-69
2022/01/30 01:36:56;;;;;;;13.87;4.90;;;7.10;99.90;;;;;;5038314;28;20185;-69
2022/01/30 01:39:22;;;;;;;13.43;5.87;;;7.20;99.90;;;;;;5049371;28;20965;-69
2022/01/30 01:41:47;;;;;;;14.27;5.57;;;7.10;99.90;;;;;;5055903;28;20420;-70
2022/01/30 01:44:15;;;;;;;13.00;4.70;;;7.20;99.90;;;;;;5055697;28;20685;-68
2022/01/30 01:46:42;;;;;;;20.20;4.70;;;7.20;99.90;;;;;;5055820;28;20182;-69
2022/01/30 01:49:10;;;;;;;17.50;4.50;;;7.20;99.90;;;;;;5056164;28;20425;-69
2022/01/30 01:51:36;;;;;;;13.03;4.83;;;7.10;99.90;;;;;;5055885;28;20428;-69
2022/01/30 01:54:01;;;;;;;11.80;5.50;;;7.10;99.90;;;;;;5055960;28;20421;-68
2022/01/30 01:56:28;;;;;;;16.13;4.47;;;7.00;99.90;;;;;;5055448;28;20476;-69
2022/01/30 01:58:54;;;;;;;11.30;3.90;;;7.00;99.90;;;;;;5055629;28;20209;-69
2022/01/30 02:01:20;;;;;;;12.27;5.03;;;7.10;99.90;;;;;;5055789;28;20900;-68
2022/01/30 02:03:46;;;;;;;18.60;5.60;;;7.10;99.90;;;;;;5056031;28;20605;-69
2022/01/30 02:06:15;;;;;;;12.60;4.70;;;7.10;99.90;;;;;;5064290;28;20416;-68
2022/01/30 02:08:45;;;;;;;10.57;4.13;;;7.10;99.90;;;;;;5075464;28;20189;-69
2022/01/30 02:11:54;;;;;;;12.73;4.93;;;7.10;99.90;;;;;;5075360;28;20457;-69
2022/01/30 02:14:20;;;;;;;16.23;4.33;;;7.20;99.90;;;;;;5069761;28;20502;-69
2022/01/30 02:27:33;;;;;;;13.90;4.53;;;6.90;99.90;;;;;;5055230;28;20860;-69
2022/01/30 02:29:59;;;;;;;14.10;4.50;;;7.00;99.90;;;;;;5053860;28;20534;-68
2022/01/30 02:32:26;;;;;;;18.80;4.67;;;7.00;99.90;;;;;;5055028;28;20412;-68
2022/01/30 02:34:51;;;;;;;9.63;4.37;;;7.00;99.90;;;;;;5054863;28;20419;-70
2022/01/30 02:37:18;;;;;;;19.10;5.70;;;7.00;99.90;;;;;;5054686;28;20409;-69
2022/01/30 02:39:44;;;;;;;18.57;4.30;;;6.80;99.90;;;;;;5055940;28;20196;-69
2022/01/30 02:42:16;;;;;;;14.60;5.10;;;6.80;99.90;;;;;;5055290;28;20791;-69
2022/01/30 02:44:52;;;;;;;13.67;3.90;;;6.80;99.90;;;;;;5055206;28;20525;-69
2022/01/30 02:48:29;;;;;;;17.37;5.63;;;6.70;99.90;;;;;;5036639;28;20421;-69
2022/01/30 02:50:18;;;;;;;18.63;4.70;;;6.70;99.90;;;;;;5045377;28;20463;-69
2022/01/30 02:52:50;;;;;;;25.50;5.23;;;6.80;99.90;;;;;;5056075;28;20411;-69
2022/01/30 02:55:16;;;;;;;21.17;4.80;;;6.90;99.90;;;;;;5067671;28;20499;-68
2022/01/30 02:57:41;;;;;;;11.43;4.80;;;6.90;99.90;;;;;;5056430;28;20519;-69
2022/01/30 03:00:09;;;;;;;14.00;4.20;;;7.00;99.90;;;;;;5074501;28;20209;-69
2022/01/30 03:02:35;;;;;;;11.80;4.73;;;7.00;99.90;;;;;;5074616;28;20741;-69
2022/01/30 03:05:01;;;;;;;17.20;4.80;;;7.00;99.90;;;;;;5074682;28;20408;-69
2022/01/30 03:07:26;;;;;;;19.97;5.80;;;6.90;99.90;;;;;;5070696;28;20185;-69
2022/01/30 03:09:52;;;;;;;21.27;5.33;;;6.90;99.90;;;;;;5054384;28;20188;-69
2022/01/30 03:12:17;;;;;;;20.40;4.50;;;6.80;99.90;;;;;;5054412;28;20252;-69
2022/01/30 03:14:43;;;;;;;15.43;4.43;;;6.60;99.90;;;;;;5054194;28;20174;-69
2022/01/30 03:17:09;;;;;;;14.50;4.90;;;6.50;99.90;;;;;;5053627;28;20177;-69
2022/01/30 03:19:34;;;;;;;13.43;5.17;;;6.40;99.90;;;;;;5053667;28;20241;-69
2022/01/30 03:22:00;;;;;;;17.83;4.70;;;6.30;99.90;;;;;;5054076;28;20412;-68
2022/01/30 03:24:25;;;;;;;24.30;4.83;;;6.30;99.90;;;;;;5070442;28;20690;-69
2022/01/30 03:26:51;;;;;;;16.73;5.40;;;6.40;99.90;;;;;;5073867;28;20201;-69
2022/01/30 03:29:18;;;;;;;17.17;5.60;;;6.50;99.90;;;;;;5045576;28;20218;-68
2022/01/30 03:31:44;;;;;;;14.23;4.57;;;6.50;99.90;;;;;;5074927;22;20248;-70
2022/01/30 03:34:11;;;;;;;17.10;4.90;;;6.60;99.90;;;;;;5056076;28;20775;-70
2022/01/30 03:36:37;;;;;;;14.03;4.83;;;6.70;99.90;;;;;;5064669;28;20792;-70
2022/01/30 03:39:04;;;;;;;18.67;4.57;;;6.80;99.90;;;;;;5072930;28;20760;-69
2022/01/30 03:41:30;;;;;;;18.20;5.60;;;6.90;99.90;;;;;;5059017;28;20436;-70
2022/01/30 03:43:55;;;;;;;23.80;5.67;;;6.90;99.90;;;;;;5052837;28;20813;-70
2022/01/30 03:46:22;;;;;;;19.83;5.40;;;6.90;99.90;;;;;;5034513;28;20449;-69
2022/01/30 03:48:48;;;;;;;18.47;4.80;;;6.90;99.90;;;;;;5052898;28;20174;-70
2022/01/30 03:51:14;;;;;;;14.83;4.37;;;6.90;99.90;;;;;;5052697;28;20937;-69
2022/01/30 03:53:40;;;;;;;15.80;4.83;;;6.80;99.90;;;;;;5052533;28;20185;-70
2022/01/30 03:56:06;;;;;;;17.97;4.67;;;6.70;99.90;;;;;;5052196;28;20414;-70
2022/01/30 03:58:33;;;;;;;13.13;3.30;;;6.60;99.90;;;;;;5065593;28;20998;-70
2022/01/30 04:00:59;;;;;;;14.67;4.70;;;6.50;99.90;;;;;;5072488;28;20954;-69
2022/01/30 04:03:25;;;;;;;11.20;3.67;;;6.40;99.90;;;;;;5072107;28;20526;-70
2022/01/30 04:05:50;;;;;;;19.23;5.13;;;6.40;99.90;;;;;;5072089;28;20165;-69
2022/01/30 04:08:16;;;;;;;19.60;5.40;;;6.50;99.90;;;;;;5072372;28;20165;-70
2022/01/30 04:10:43;;;;;;;15.60;4.90;;;6.40;99.90;;;;;;5072071;28;20178;-70
2022/01/30 04:13:08;;;;;;;17.80;6.10;;;6.50;99.90;;;;;;5072199;28;20196;-70
2022/01/30 04:15:34;;;;;;;16.23;4.93;;;6.60;99.90;;;;;;5063597;28;20413;-70
2022/01/30 04:18:01;;;;;;;19.77;4.80;;;6.50;99.90;;;;;;5052188;28;20239;-70
2022/01/30 04:20:28;;;;;;;24.07;4.97;;;6.40;99.90;;;;;;5034314;28;20170;-70
2022/01/30 04:22:53;;;;;;;13.40;4.80;;;6.30;99.90;;;;;;5051847;28;20484;-70
2022/01/30 04:25:19;;;;;;;16.53;5.03;;;6.20;99.90;;;;;;5051629;28;20447;-70
2022/01/30 04:27:44;;;;;;;21.00;4.43;;;6.30;99.90;;;;;;5051940;28;20162;-70
2022/01/30 04:30:11;;;;;;;16.43;4.00;;;6.10;99.90;;;;;;5052038;28;20181;-70
2022/01/30 04:32:41;;;;;;;24.83;6.20;;;6.10;99.90;;;;;;5055227;28;20205;-69
2022/01/30 04:35:16;;;;;;;15.83;4.87;;;6.10;99.90;;;;;;5071619;28;20418;-70
2022/01/30 04:38:05;;;;;;;13.67;4.23;;;6.00;99.90;;;;;;5071464;28;20404;-70
2022/01/30 05:01:58;;;;;;;12.80;4.50;;;6.40;99.90;;;;;;5069427;28;20485;-70
2022/01/30 05:04:47;;;;;;;12.00;4.63;;;6.30;99.90;;;;;;5069081;28;20229;-71
2022/01/30 05:09:39;;;;;;;11.43;4.30;;;6.50;99.90;;;;;;5069552;28;20447;-70
2022/01/30 05:12:05;;;;;;;13.17;4.10;;;6.40;99.90;;;;;;5064264;28;20224;-70
2022/01/30 05:14:35;;;;;;;20.20;5.40;;;6.40;99.90;;;;;;5068310;28;20457;-70
2022/01/30 05:17:03;;;;;;;18.23;5.27;;;6.40;99.90;;;;;;5063024;28;20831;-70
2022/01/30 05:19:29;;;;;;;11.93;4.07;;;6.40;99.90;;;;;;5049468;28;20420;-70
2022/01/30 05:21:54;;;;;;;8.87;3.77;;;6.40;99.90;;;;;;5066259;28;20439;-70
2022/01/30 05:24:20;;;;;;;15.40;5.03;;;6.40;99.90;;;;;;5070752;28;20197;-70
2022/01/30 05:26:46;;;;;;;15.67;4.30;;;6.40;99.90;;;;;;5069038;28;20204;-71
2022/01/30 05:29:13;;;;;;;16.97;5.17;;;6.50;99.90;;;;;;5071221;28;20627;-70
2022/01/30 05:31:39;;;;;;;17.93;4.23;;;6.40;99.90;;;;;;5071031;28;20539;-70
2022/01/30 05:34:05;;;;;;;14.97;4.87;;;6.40;99.90;;;;;;5071092;28;20455;-70
2022/01/30 05:36:31;;;;;;;20.80;4.70;;;6.40;99.90;;;;;;5049399;28;20882;-70
2022/01/30 05:38:58;;;;;;;14.47;5.10;;;6.50;99.90;;;;;;5050881;28;20825;-71
2022/01/30 05:41:24;;;;;;;19.93;3.83;;;6.50;99.90;;;;;;5033209;28;20835;-71
2022/01/30 05:43:54;;;;;;;15.20;4.53;;;6.50;99.90;;;;;;5051116;28;20504;-71
2022/01/30 05:46:35;;;;;;;13.33;4.90;;;6.60;99.90;;;;;;5051086;28;20393;-70
2022/01/30 05:49:02;;;;;;;14.70;4.27;;;6.60;99.90;;;;;;5069311;28;20412;-71
2022/01/30 05:51:28;;;;;;;23.03;4.70;;;6.50;99.90;;;;;;5070933;28;20416;-71
2022/01/30 05:53:53;;;;;;;13.20;4.33;;;6.50;99.90;;;;;;5071006;28;20438;-71
2022/01/30 05:56:19;;;;;;;18.47;5.93;;;6.50;99.90;;;;;;5070799;28;20197;-72
2022/01/30 05:58:44;;;;;;;15.07;4.93;;;6.60;99.90;;;;;;5069026;28;20178;-70
2022/01/30 06:01:10;;;;;;;14.63;4.10;;;6.60;99.90;;;;;;5070875;28;20181;-70
2022/01/30 06:03:35;;;;;;;14.10;5.00;;;6.60;99.90;;;;;;5070837;28;20185;-70
2022/01/30 06:06:01;;;;;;;18.20;4.30;;;6.60;99.90;;;;;;5073938;28;20166;-71
2022/01/30 06:08:42;;;;;;;12.37;3.67;;;6.60;99.90;;;;;;5073187;28;20539;-71
2022/01/30 06:11:10;;;;;;;17.00;4.47;;;6.50;99.90;;;;;;5074047;28;20177;-70
2022/01/30 06:13:36;;;;;;;21.17;5.53;;;6.50;99.90;;;;;;5074540;28;20412;-70
2022/01/30 06:16:02;;;;;;;16.03;4.33;;;6.50;99.90;;;;;;5074237;28;20773;-71
2022/01/30 06:18:28;;;;;;;19.83;4.70;;;6.60;99.90;;;;;;5074353;28;20177;-70
2022/01/30 06:20:54;;;;;;;18.47;4.93;;;6.60;99.90;;;;;;5074346;28;20412;-70
2022/01/30 06:23:22;;;;;;;12.00;4.47;;;6.60;99.90;;;;;;5073505;28;20566;-71
2022/01/30 06:25:48;;;;;;;13.80;4.83;;;6.60;99.90;;;;;;5070348;28;20374;-70
2022/01/30 06:28:14;;;;;;;23.10;4.87;;;6.60;99.90;;;;;;5047902;28;20446;-70
2022/01/30 06:30:40;;;;;;;10.33;3.80;;;6.60;99.90;;;;;;5074449;28;20400;-71
2022/01/30 06:33:05;;;;;;;24.97;5.27;;;6.50;99.90;;;;;;5074009;28;20462;-70
2022/01/30 06:35:31;;;;;;;15.63;4.73;;;6.50;99.90;;;;;;5073962;28;20182;-70
2022/01/30 06:37:56;;;;;;;12.50;4.30;;;6.40;99.90;;;;;;5073561;28;20177;-71
2022/01/30 06:40:22;;;;;;;9.53;4.33;;;6.50;99.90;;;;;;5053993;28;20204;-71
2022/01/30 06:42:47;;;;;;;17.53;4.10;;;6.30;99.90;;;;;;5053909;28;20224;-71
2022/01/30 06:45:13;;;;;;;22.97;5.13;;;6.30;99.90;;;;;;5055523;28;20574;-71
2022/01/30 06:47:42;;;;;;;10.50;4.23;;;6.20;99.90;;;;;;5060106;28;20658;-71
2022/01/30 06:50:09;;;;;;;15.80;4.50;;;6.20;99.90;;;;;;5054393;28;20178;-71
2022/01/30 06:52:35;;;;;;;13.27;4.07;;;6.10;99.90;;;;;;5053804;28;20431;-71
2022/01/30 06:55:00;;;;;;;16.53;4.23;;;6.10;99.90;;;;;;5037069;28;20420;-71
2022/01/30 06:57:26;;;;;;;11.70;3.33;;;6.10;99.90;;;;;;5035930;28;21267;-71
2022/01/30 06:59:51;;;;;;;10.93;5.93;;;6.10;99.90;;;;;;5053687;28;20186;-71
2022/01/30 07:02:17;;;;;;;13.33;4.40;;;5.90;99.90;;;;;;5053607;28;20531;-71
2022/01/30 07:04:42;;;;;;;10.53;3.70;;;6.00;99.90;;;;;;5053513;28;20285;-71
2022/01/30 07:07:08;;;;;;;20.63;5.60;;;6.10;99.90;;;;;;5053292;28;20541;-71
2022/01/30 07:09:33;;;;;;;12.20;4.93;;;6.10;99.90;;;;;;5054435;28;20181;-70
2022/01/30 07:11:59;;;;;;;13.00;4.67;;;6.00;99.90;;;;;;5053200;28;20194;-71
2022/01/30 07:14:25;;;;;;;16.43;5.40;;;6.00;99.90;;;;;;5053560;28;20665;-71
2022/01/30 07:16:51;;;;;;;18.53;5.20;;;5.90;99.90;;;;;;5052584;28;20968;-71
2022/01/30 07:19:16;;;;;;;11.27;3.80;;;5.80;99.90;;;;;;5053320;28;20183;-70
2022/01/30 07:21:42;;;;;;;12.23;4.90;;;5.90;99.90;;;;;;5053339;28;20566;-70
2022/01/30 07:24:08;;;;;;;13.40;3.67;;;5.80;99.90;;;;;;5053287;28;20586;-71
2022/01/30 07:26:33;;;;;;;11.40;4.90;;;5.70;99.90;;;;;;5054021;28;20174;-70
2022/01/30 07:29:04;;;;;;;12.10;4.30;;;5.60;99.90;;;;;;5053155;28;20459;-70
2022/01/30 07:31:33;;;;;;;7.33;3.20;;;5.60;99.90;;;;;;5059635;28;20280;-71
2022/01/30 07:34:00;;;;;;;21.37;4.13;;;5.70;99.90;;;;;;5072751;28;20507;-70
2022/01/30 07:36:27;;;;;;;15.60;4.40;;;5.70;99.90;;;;;;5064188;28;20420;-70
2022/01/30 07:38:54;;;;;;;12.07;3.57;;;5.80;99.90;;;;;;5067941;28;20422;-71
2022/01/30 07:41:20;;;;;;;13.40;3.83;;;5.80;99.90;;;;;;5063758;28;20956;-70
2022/01/30 07:43:45;;;;;;;15.10;4.43;;;5.90;99.90;;;;;;5058586;28;20584;-71
2022/01/30 07:46:11;;;;;;;10.20;3.57;;;5.80;99.90;;;;;;5064944;28;20419;-70
2022/01/30 07:48:37;;;;;;;9.30;3.80;;;5.70;99.90;;;;;;5068163;28;20197;-71
2022/01/30 07:51:03;;;;;;;13.10;4.50;;;5.60;99.90;;;;;;5069149;28;20189;-70
2022/01/30 07:53:29;;;;;;;15.30;3.83;;;5.50;99.90;;;;;;5066744;28;20424;-70
2022/01/30 07:55:54;;;;;;;18.33;4.00;;;5.50;99.90;;;;;;5069296;28;20447;-70
2022/01/30 07:58:21;;;;;;;10.50;3.40;;;5.60;99.90;;;;;;5053978;28;20178;-70
2022/01/30 08:00:46;;;;;;;15.67;3.27;;;5.60;99.90;;;;;;5052454;28;20181;-70
2022/01/30 08:03:12;;;;;;;19.83;4.00;;;5.60;99.90;;;;;;5052154;28;20460;-69
2022/01/30 08:05:38;;;;;;;13.90;5.00;;;5.60;99.90;;;;;;5064816;28;20185;-70
2022/01/30 08:08:05;;;;;;;8.30;3.27;;;5.60;99.90;;;;;;5063573;28;20262;-70
2022/01/30 08:10:31;;;;;;;14.67;4.03;;;5.60;99.90;;;;;;5066436;28;20431;-70
2022/01/30 08:12:57;;;;;;;12.00;4.10;;;5.70;99.90;;;;;;5067331;28;20822;-70
2022/01/30 08:15:22;;;;;;;12.73;4.67;;;5.80;99.90;;;;;;5052129;28;20190;-70
2022/01/30 08:17:48;;;;;;;22.93;4.90;;;5.80;99.90;;;;;;5065033;28;20256;-70
2022/01/30 08:20:14;;;;;;;13.93;3.97;;;5.60;99.90;;;;;;5065748;28;20196;-70
2022/01/30 08:22:51;;;;;;;16.33;4.33;;;5.60;99.90;;;;;;5067372;28;20198;-71
2022/01/30 08:25:19;;;;;;;13.30;4.70;;;5.70;99.90;;;;;;5066620;28;20452;-71
2022/01/30 08:27:46;;;;;;;12.03;4.07;;;5.70;99.90;;;;;;5057831;28;20842;-71
2022/01/30 08:30:12;;;;;;;12.40;5.30;;;5.70;99.90;;;;;;5069866;28;20548;-71
2022/01/30 08:32:39;;;;;;;15.57;4.07;;;5.70;99.90;;;;;;5061854;28;20582;-71
2022/01/30 08:35:06;;;;;;;15.75;3.63;;;5.80;99.90;;;;;;5062327;28;20418;-71
2022/01/30 08:37:31;;;;;;;14.50;4.83;;;5.90;99.90;;;;;;5057982;28;20216;-71
2022/01/30 08:39:57;;;;;;;10.23;4.77;;;6.00;99.90;;;;;;5056179;28;20461;-70
2022/01/30 08:42:22;;;;;;;17.20;4.33;;;6.00;99.90;;;;;;5070669;28;20566;-73
2022/01/30 08:44:48;;;;;;;12.80;4.90;;;6.00;99.90;;;;;;5058055;28;20840;-71
2022/01/30 08:47:13;;;;;;;11.00;4.77;;;5.90;99.90;;;;;;5057342;28;20217;-70
2022/01/30 08:49:39;;;;;;;16.50;3.57;;;5.90;99.90;;;;;;5052129;28;20666;-70
2022/01/30 08:52:04;;;;;;;14.53;4.20;;;5.90;99.90;;;;;;5070881;28;20208;-70
2022/01/30 08:54:30;;;;;;;15.33;4.20;;;5.90;99.90;;;;;;5068494;28;20566;-70
2022/01/30 08:56:55;;;;;;;14.87;4.50;;;6.00;99.90;;;;;;5070509;28;20232;-70
2022/01/30 08:59:21;;;;;;;10.30;3.70;;;5.90;99.90;;;;;;5070312;28;20308;-70
2022/01/30 09:01:46;;;;;;;10.97;4.43;;;6.00;99.90;;;;;;5070833;28;20209;-70
2022/01/30 09:04:14;;;;;;;13.27;4.10;;;6.00;99.90;;;;;;5068322;28;20209;-70
2022/01/30 09:06:39;;;;;;;25.13;3.67;;;6.00;99.90;;;;;;5061695;28;20201;-70
2022/01/30 09:09:05;;;;;;;16.00;3.60;;;5.90;99.90;;;;;;5068755;28;20444;-70
2022/01/30 09:11:33;;;;;;;14.90;3.73;;;5.90;99.90;;;;;;5065575;28;20197;-71
2022/01/30 09:13:59;;;;;;;16.30;4.37;;;6.00;99.90;;;;;;5062977;28;20444;-70
2022/01/30 09:16:24;;;;;;;16.80;4.97;;;5.90;99.90;;;;;;5049846;28;20500;-70
2022/01/30 09:18:50;;;;;;;16.70;4.17;;;6.00;99.90;;;;;;5046880;28;20300;-70
2022/01/30 09:21:16;;;;;;;15.70;3.80;;;6.00;99.90;;;;;;5049980;28;20210;-70
2022/01/30 09:23:41;;;;;;;14.13;3.67;;;6.00;99.90;;;;;;5067709;28;21270;-70
2022/01/30 09:26:07;;;;;;;27.37;4.10;;;6.00;99.90;;;;;;5062615;28;20197;-70
2022/01/30 09:28:32;;;;;;;11.00;3.60;;;6.10;99.90;;;;;;5061901;28;20262;-70
2022/01/30 09:30:58;;;;;;;13.13;3.80;;;6.10;99.90;;;;;;5070583;28;20196;-71
2022/01/30 09:33:23;;;;;;;10.90;3.93;;;6.20;99.90;;;;;;5069517;28;20688;-71
2022/01/30 09:35:49;;;;;;;18.70;4.10;;;6.30;99.90;;;;;;5070970;28;20205;-70
2022/01/30 09:38:14;;;;;;;14.30;4.60;;;6.30;99.90;;;;;;5071140;28;20220;-70
2022/01/30 09:40:40;;;;;;;16.63;4.07;;;6.30;99.90;;;;;;5068156;28;20212;-71
2022/01/30 09:43:06;;;;;;;15.73;4.90;;;6.30;99.90;;;;;;5054396;28;20205;-71
2022/01/30 09:45:33;;;;;;;16.20;4.57;;;6.40;99.90;;;;;;5053748;28;20217;-70
2022/01/30 09:47:59;;;;;;;16.40;4.80;;;6.50;99.90;;;;;;5060069;28;20439;-73
2022/01/30 09:50:25;;;;;;;11.87;4.47;;;6.60;99.90;;;;;;5046279;28;20455;-70
2022/01/30 09:52:51;;;;;;;14.90;4.77;;;6.60;99.90;;;;;;5072259;28;20579;-70
2022/01/30 09:55:17;;;;;;;14.00;4.47;;;6.60;99.90;;;;;;5038276;28;20258;-70
2022/01/30 09:57:43;;;;;;;22.67;4.80;;;6.70;99.90;;;;;;5063347;28;20266;-70
2022/01/30 10:00:10;;;;;;;15.73;4.90;;;6.80;99.90;;;;;;5071444;28;20626;-71
2022/01/30 10:02:36;;;;;;;11.97;4.00;;;6.80;99.90;;;;;;5073481;28;20459;-71
2022/01/30 10:05:01;;;;;;;21.27;5.00;;;6.80;99.90;;;;;;5073627;28;20511;-70
2022/01/30 10:07:52;;;;;;;16.83;4.10;;;6.70;99.90;;;;;;5073605;28;20280;-71
2022/01/30 10:10:23;;;;;;;13.03;4.30;;;6.70;99.90;;;;;;5073258;28;20236;-71
2022/01/30 10:13:08;;;;;;;19.77;4.40;;;6.80;99.90;;;;;;5056664;28;20452;-70
2022/01/30 10:15:56;;;;;;;17.40;4.47;;;6.70;99.90;;;;;;5057893;28;20513;-70
2022/01/30 10:18:23;;;;;;;13.40;5.40;;;6.60;99.90;;;;;;5066224;28;20501;-71
2022/01/30 10:23:17;;;;;;;12.73;4.93;;;6.80;99.90;;;;;;5034763;28;20530;-68
2022/01/30 10:25:52;;;;;;;14.30;4.47;;;6.70;99.90;;;;;;5036787;28;20401;-69
2022/01/30 10:28:20;;;;;;;14.40;4.70;;;6.70;99.90;;;;;;5037888;28;20409;-68
2022/01/30 10:30:49;;;;;;;18.93;5.60;;;6.70;99.90;;;;;;5036510;28;20906;-68
2022/01/30 10:33:17;;;;;;;24.10;6.40;;;6.60;99.90;;;;;;5023747;28;20411;-68
2022/01/30 10:35:45;;;;;;;17.83;5.17;;;6.60;99.90;;;;;;5016283;28;20763;-68
2022/01/30 10:38:19;;;;;;;11.67;4.90;;;6.60;99.90;;;;;;5018607;28;20442;-68
2022/01/30 10:40:59;;;;;;;10.90;3.73;;;6.70;99.90;;;;;;5036031;28;20425;-68
2022/01/30 10:44:03;;;;;;;17.57;5.47;;;6.70;99.90;;;;;;5018019;28;20559;-69
2022/01/30 10:46:31;;;;;;;19.20;5.27;;;6.80;99.90;;;;;;5035834;28;20397;-68
2022/01/30 10:48:58;;;;;;;16.20;4.47;;;6.80;99.90;;;;;;5034625;28;20902;-69
2022/01/30 10:51:26;;;;;;;20.87;5.30;;;6.80;99.90;;;;;;5015600;28;20430;-70
2022/01/30 10:53:52;;;;;;;13.90;4.33;;;6.80;99.90;;;;;;5020421;28;20508;-68
2022/01/30 10:56:27;;;;;;;16.27;4.20;;;6.90;99.90;;;;;;5036090;28;20499;-69
2022/01/30 10:59:12;;;;;;;17.83;4.87;;;6.80;99.90;;;;;;5019027;28;20787;-69
2022/01/30 11:01:40;;;;;;;18.40;4.53;;;6.90;99.90;;;;;;5036883;28;20422;-68
2022/01/30 11:04:06;;;;;;;15.80;4.90;;;7.00;99.90;;;;;;5038681;28;20441;-70
2022/01/30 11:06:37;;;;;;;16.20;4.53;;;7.00;99.90;;;;;;5037892;28;20418;-70
2022/01/30 11:09:11;;;;;;;19.17;5.13;;;7.00;99.90;;;;;;5037331;28;20437;-67
2022/01/30 11:11:44;;;;;;;12.70;4.33;;;6.90;99.90;;;;;;5035667;28;20417;-68
2022/01/30 11:19:21;;;;;;;18.10;4.83;;;6.80;99.90;;;;;;5036687;28;20916;-69
2022/01/30 11:21:57;;;;;;;16.57;4.50;;;6.80;99.90;;;;;;5035688;28;20552;-69
2022/01/30 11:24:24;;;;;;;22.27;4.10;;;6.80;99.90;;;;;;5023404;28;20847;-69
2022/01/30 11:26:50;;;;;;;15.93;5.70;;;6.80;99.90;;;;;;5015005;28;20421;-68
2022/01/30 11:29:19;;;;;;;22.57;5.80;;;6.80;99.90;;;;;;5014875;28;20411;-68
2022/01/30 11:31:44;;;;;;;17.70;5.17;;;6.80;99.90;;;;;;5015055;28;20422;-69
2022/01/30 11:34:10;;;;;;;18.90;5.30;;;6.90;99.90;;;;;;5015279;28;20411;-68
2022/01/30 11:36:44;;;;;;;16.90;5.40;;;7.00;99.90;;;;;;5016686;28;20183;-68
2022/01/30 11:39:15;;;;;;;16.10;4.37;;;7.00;99.90;;;;;;5035182;28;20406;-69
2022/01/30 11:41:40;;;;;;;20.03;5.67;;;7.00;99.90;;;;;;5035143;28;20508;-68
2022/01/30 11:44:18;;;;;;;17.50;5.47;;;7.00;99.90;;;;;;5034345;28;20558;-68
2022/01/30 11:46:55;;;;;;;25.83;6.57;;;6.90;99.90;;;;;;5035640;28;20176;-69
2022/01/30 11:49:21;;;;;;;17.90;4.60;;;6.90;99.90;;;;;;5018592;28;20402;-69
2022/01/30 11:51:54;;;;;;;16.57;4.47;;;6.90;99.50;;;;;;5035872;28;20437;-69
2022/01/30 11:54:41;;;;;;;17.80;5.30;;;6.90;98.70;;;;;;5035673;28;20187;-69
2022/01/30 11:57:21;;;;;;;20.63;5.33;;;6.90;99.00;;;;;;5035011;28;20410;-68
2022/01/30 11:59:48;;;;;;;34.70;5.77;;;6.80;99.80;;;;;;5035910;28;20421;-69
2022/01/30 12:02:29;;;;;;;17.43;5.90;;;6.90;99.90;;;;;;5034776;28;20441;-69
2022/01/30 12:05:02;;;;;;;15.00;4.47;;;6.90;99.90;;;;;;5035653;28;20930;-70
2022/01/30 12:07:36;;;;;;;19.87;5.83;;;6.90;99.90;;;;;;5034957;28;20544;-69
2022/01/30 12:10:16;;;;;;;19.13;5.40;;;7.00;99.90;;;;;;5035963;28;20406;-70
2022/01/30 12:12:56;;;;;;;20.60;6.27;;;7.00;99.90;;;;;;5017871;28;20445;-70
2022/01/30 12:15:42;;;;;;;21.43;5.67;;;7.00;99.90;;;;;;5035722;28;20404;-69
2022/01/30 12:18:19;;;;;;;22.87;6.77;;;7.10;99.80;;;;;;5035316;28;20929;-69
2022/01/30 12:20:59;;;;;;;15.30;4.50;;;6.90;99.90;;;;;;5017859;28;20421;-68
2022/01/30 12:23:26;;;;;;;23.60;6.13;;;6.90;99.90;;;;;;5031770;28;20446;-68
2022/01/30 12:26:05;;;;;;;15.57;5.73;;;6.90;99.80;;;;;;5013757;28;20407;-68
2022/01/30 12:28:51;;;;;;;14.43;5.13;;;7.00;99.90;;;;;;5020600;28;20436;-68
2022/01/30 12:31:30;;;;;;;14.60;5.50;;;7.10;98.50;;;;;;5034335;28;20485;-69
2022/01/30 12:34:10;;;;;;;14.50;4.40;;;7.10;98.10;;;;;;5033919;28;20406;-69
2022/01/30 12:36:41;;;;;;;23.97;4.53;;;7.00;97.30;;;;;;5033758;28;20446;-69
2022/01/30 12:39:11;;;;;;;26.10;5.80;;;7.00;98.10;;;;;;5034028;28;20475;-69
2022/01/30 12:41:38;;;;;;;25.13;6.20;;;7.00;98.50;;;;;;5034733;28;20441;-69
2022/01/30 12:44:11;;;;;;;16.17;5.53;;;7.10;98.60;;;;;;5033200;28;20464;-69
2022/01/30 12:46:45;;;;;;;18.97;5.70;;;7.10;98.40;;;;;;5015677;28;20979;-69
2022/01/30 12:49:14;;;;;;;8.70;4.17;;;7.20;98.30;;;;;;5033530;28;20386;-69
2022/01/30 12:51:42;;;;;;;19.10;5.43;;;7.20;98.20;;;;;;4993173;28;20553;-69
2022/01/30 12:54:08;;;;;;;15.13;5.27;;;7.10;98.60;;;;;;5011357;28;20423;-68
2022/01/30 12:56:36;;;;;;;15.13;5.60;;;7.10;98.90;;;;;;5011411;28;20422;-69
2022/01/30 12:59:06;;;;;;;23.87;6.27;;;7.10;99.30;;;;;;5013021;28;20411;-68
2022/01/30 13:01:34;;;;;;;20.50;5.50;;;7.20;99.50;;;;;;5006827;28;20431;-69
2022/01/30 13:04:05;;;;;;;14.73;5.03;;;7.10;99.50;;;;;;5013352;28;21021;-68
2022/01/30 13:06:37;;;;;;;17.27;5.80;;;7.20;99.90;;;;;;5013259;28;20443;-67
2022/01/30 13:09:04;;;;;;;21.60;7.17;;;7.20;99.90;;;;;;5010305;28;20418;-70
2022/01/30 13:11:29;;;;;;;20.87;5.63;;;7.20;99.90;;;;;;4995556;28;20507;-68
2022/01/30 13:13:59;;;;;;;21.20;7.37;;;7.30;99.90;;;;;;5015996;28;20410;-67
2022/01/30 13:16:31;;;;;;;16.30;5.27;;;7.30;99.90;;;;;;5013994;28;20758;-69
2022/01/30 13:18:57;;;;;;;16.03;5.00;;;7.20;99.90;;;;;;5014752;28;20418;-69
2022/01/30 13:21:31;;;;;;;18.73;5.23;;;7.20;99.90;;;;;;5015310;28;20539;-69
2022/01/30 13:23:57;;;;;;;11.13;3.73;;;7.30;99.90;;;;;;5006427;28;20470;-70
2022/01/30 13:26:34;;;;;;;25.20;6.67;;;7.30;99.90;;;;;;4996312;28;20521;-70
2022/01/30 13:29:02;;;;;;;12.03;4.63;;;7.20;99.90;;;;;;5006787;28;20863;-70
2022/01/30 13:31:30;;;;;;;16.30;5.50;;;7.30;99.90;;;;;;5010487;28;21098;-70
2022/01/30 13:34:10;;;;;;;21.70;4.87;;;7.30;99.90;;;;;;5012044;28;20816;-70
2022/01/30 13:36:36;;;;;;;13.40;4.70;;;7.20;99.90;;;;;;5011393;28;20476;-69
2022/01/30 13:39:07;;;;;;;21.07;4.90;;;7.10;99.30;;;;;;5011191;28;20418;-69
2022/01/30 13:41:42;;;;;;;24.50;6.67;;;7.10;99.10;;;;;;5012053;28;20427;-69
2022/01/30 13:44:21;;;;;;;13.80;5.00;;;7.10;98.80;;;;;;4996566;28;20838;-70
2022/01/30 13:47:03;;;;;;;15.40;4.40;;;7.10;98.20;;;;;;5028737;28;20410;-69
2022/01/30 13:49:29;;;;;;;19.00;5.10;;;7.10;98.00;;;;;;5030525;28;20397;-69
2022/01/30 13:52:05;;;;;;;16.00;5.20;;;7.10;97.80;;;;;;5029994;28;20435;-69
2022/01/30 13:54:31;;;;;;;22.13;5.80;;;7.20;97.90;;;;;;5029102;28;20441;-70